Search for airport 
image banner adimage banner adimage banner ad
image banner ad

07CL - Richvale

Located in Richvale, United States

ICAO - 07CL, IATA -

Data provided by Airmate  

General information

Coordinates: N39°29'52" W121°46'17"
Elevation is 100 feet MSL.
Magnetic variation is 17° East
View others Airports in California

Operational data

Special qualification required
Current time UTC:
Current local time:
Weather at : KOVE - Oroville Muni ( 13 km )
METAR: KOVE 292053Z AUTO 21005KT 10SM CLR 38/15 A2986 RMK AO2 SLP112 T03780150 58016
View NOTAMs / SUP AIP / TFR affecting this airport [VIEW]
Communications frequencies: [VIEW]

Runways:

RWY identifierQFULength (ft)Width (ft)SurfaceLDA (ft)
16222050ASPH
34222050ASPH

Airport contact information

Address: Richvale United States

Satellite view of 07CL